Terminal Aerodrome Forecast
Issued by NWS Billings, MT

Home | Current Version | Previous Version | Text Only | Print | Product List | Glossary Off
Versions: 1 2 3 4 5 6 7 8 9 10 11 12 13 14 15 16

000
FTUS45 KBYZ 260535
TAFMLS
TAF
KMLS 260535Z 2606/2706 00000KT P6SM FEW200
     FM261200 16012KT P6SM FEW200
     FM270300 VRB05KT P6SM VCTS SCT120CB=

USA.gov is the U.S. government's official web portal to all federal, state and local government web resources and services.